createdAt,value
2022-12-08T00:01:13.811Z,3.20
2022-12-08T00:03:41.707Z,2.40
2022-12-08T00:06:50.967Z,2.50
2022-12-08T00:09:34.717Z,2.17
2022-12-08T00:12:11.373Z,2.10
2022-12-08T00:14:43.955Z,2.13
2022-12-08T00:17:12.823Z,6.30
2022-12-08T00:19:40.931Z,2.67
2022-12-08T00:22:09.692Z,2.60
2022-12-08T00:24:39.758Z,1.97
2022-12-08T00:27:11.709Z,4.33
2022-12-08T00:29:38.909Z,2.20
2022-12-08T00:32:06.539Z,2.47
2022-12-08T00:34:34.894Z,3.00
2022-12-08T00:37:02.015Z,2.30
2022-12-08T00:39:29.548Z,2.80
2022-12-08T00:42:14.653Z,2.10
2022-12-08T00:44:43.157Z,2.47
2022-12-08T00:47:12.794Z,2.17
2022-12-08T00:49:40.009Z,2.53
2022-12-08T00:52:07.985Z,1.90
2022-12-08T00:54:35.295Z,2.70
2022-12-08T00:57:02.456Z,2.30
2022-12-08T00:59:29.405Z,2.70
2022-12-08T01:01:56.259Z,2.83
2022-12-08T01:04:23.143Z,2.93
2022-12-08T01:06:50.436Z,3.13
2022-12-08T01:09:18.788Z,2.70
2022-12-08T01:11:46.129Z,3.17
2022-12-08T01:14:13.400Z,2.70
2022-12-08T01:16:43.288Z,3.03
2022-12-08T01:19:13.160Z,2.70
2022-12-08T01:21:43.971Z,3.13
2022-12-08T01:24:20.418Z,2.90
2022-12-08T01:26:48.806Z,2.73
2022-12-08T01:29:17.498Z,2.73
2022-12-08T01:31:45.596Z,2.90
2022-12-08T01:34:12.703Z,2.60
2022-12-08T01:36:39.576Z,3.87
2022-12-08T01:39:10.588Z,2.97
2022-12-08T01:41:38.810Z,2.73
2022-12-08T01:44:08.881Z,2.40
2022-12-08T01:46:38.491Z,2.60
2022-12-08T01:49:11.296Z,2.13
2022-12-08T01:51:56.568Z,2.20
2022-12-08T01:54:26.696Z,2.90
2022-12-08T01:57:01.359Z,2.97
2022-12-08T01:59:30.565Z,2.73
2022-12-08T02:01:58.280Z,2.43
2022-12-08T02:04:25.069Z,3.40
2022-12-08T02:06:52.735Z,2.50
2022-12-08T02:09:20.220Z,2.40
2022-12-08T02:11:48.113Z,2.97
2022-12-08T02:14:15.555Z,3.50
2022-12-08T02:16:49.581Z,3.23
2022-12-08T02:19:31.199Z,3.43
2022-12-08T02:22:07.433Z,3.10
2022-12-08T02:25:08.260Z,2.60
2022-12-08T02:28:13.566Z,3.27
2022-12-08T02:30:54.097Z,3.10
2022-12-08T02:33:44.955Z,3.00
2022-12-08T02:36:18.139Z,3.23
2022-12-08T02:39:10.670Z,3.03
2022-12-08T02:42:08.188Z,3.27
2022-12-08T02:44:45.951Z,3.00
2022-12-08T02:47:16.811Z,2.73
2022-12-08T02:49:43.818Z,3.03
2022-12-08T02:52:13.609Z,3.83
2022-12-08T02:54:50.132Z,3.70
2022-12-08T02:57:58.607Z,2.30
2022-12-08T03:00:28.175Z,3.63
2022-12-08T03:02:58.802Z,2.53
2022-12-08T03:06:06.579Z,3.37
2022-12-08T03:08:48.424Z,3.60
2022-12-08T03:11:24.866Z,3.30
2022-12-08T03:13:54.926Z,3.43
2022-12-08T03:16:27.975Z,3.20
2022-12-08T03:19:05.661Z,3.63
2022-12-08T03:21:35.366Z,3.30
2022-12-08T03:24:07.396Z,3.40
2022-12-08T03:26:48.803Z,4.00
2022-12-08T03:29:16.044Z,3.63
2022-12-08T03:31:53.314Z,4.50
2022-12-08T03:34:21.957Z,4.20
2022-12-08T03:36:48.734Z,3.67
2022-12-08T03:39:15.568Z,4.70
2022-12-08T03:41:42.421Z,4.17
2022-12-08T03:44:09.245Z,4.03
2022-12-08T03:46:36.014Z,5.07
2022-12-08T03:49:02.843Z,4.83
2022-12-08T03:51:29.673Z,4.80
2022-12-08T03:53:56.784Z,5.27
2022-12-08T03:56:30.773Z,5.10
2022-12-08T03:58:58.602Z,4.83
2022-12-08T04:01:26.101Z,5.20
2022-12-08T04:03:53.239Z,5.23
2022-12-08T04:06:21.968Z,5.20
2022-12-08T04:08:50.367Z,5.63
2022-12-08T04:11:17.767Z,5.67
2022-12-08T04:13:44.922Z,6.67
2022-12-08T04:16:20.889Z,4.83
2022-12-08T04:18:48.215Z,5.63
2022-12-08T04:21:15.620Z,5.07
2022-12-08T04:23:42.927Z,6.13
2022-12-08T04:26:10.679Z,5.80
2022-12-08T04:28:37.834Z,5.97
2022-12-08T04:31:05.365Z,6.50
2022-12-08T04:33:32.512Z,5.93
2022-12-08T04:35:59.534Z,7.50
2022-12-08T04:38:26.357Z,6.30
2022-12-08T04:40:53.609Z,6.97
2022-12-08T04:43:20.759Z,14.40
2022-12-08T04:45:47.622Z,19.87
2022-12-08T04:48:14.898Z,21.00
2022-12-08T04:50:43.548Z,15.17
2022-12-08T04:53:11.282Z,11.37
2022-12-08T04:55:43.913Z,8.63
2022-12-08T04:58:18.693Z,8.33
2022-12-08T05:00:46.013Z,7.00
2022-12-08T05:03:13.557Z,7.73
2022-12-08T05:05:41.791Z,6.00
2022-12-08T05:08:10.391Z,6.70
2022-12-08T05:10:37.611Z,6.57
2022-12-08T05:13:04.529Z,6.90
2022-12-08T05:15:31.386Z,7.10
2022-12-08T05:17:58.322Z,6.87
2022-12-08T05:20:25.169Z,6.20
2022-12-08T05:22:51.964Z,7.00
2022-12-08T05:25:18.720Z,6.77
2022-12-08T05:27:45.479Z,7.17
2022-12-08T05:30:12.451Z,6.57
2022-12-08T05:32:40.271Z,7.10
2022-12-08T05:35:07.405Z,7.20
2022-12-08T05:37:34.294Z,6.00
2022-12-08T05:40:01.182Z,5.70
2022-12-08T05:42:28.036Z,6.83
2022-12-08T05:44:54.858Z,5.53
2022-12-08T05:47:21.729Z,6.23
2022-12-08T05:49:48.616Z,5.70
2022-12-08T05:52:16.956Z,6.57
2022-12-08T05:54:44.137Z,6.23
2022-12-08T05:57:10.971Z,6.00
2022-12-08T05:59:38.426Z,5.83
2022-12-08T06:02:05.251Z,6.40
2022-12-08T06:04:32.362Z,5.70
2022-12-08T06:06:59.134Z,6.27
2022-12-08T06:09:26.008Z,7.00
2022-12-08T06:11:52.761Z,6.37
2022-12-08T06:14:19.792Z,7.37
2022-12-08T06:16:46.838Z,6.43
2022-12-08T06:19:13.928Z,6.03
2022-12-08T06:21:41.837Z,6.33
2022-12-08T06:24:08.849Z,6.03
2022-12-08T06:26:36.154Z,6.87
2022-12-08T06:29:04.997Z,7.03
2022-12-08T06:31:31.957Z,7.07
2022-12-08T06:33:58.967Z,6.13
2022-12-08T06:36:28.205Z,6.50
2022-12-08T06:38:55.875Z,7.20
2022-12-08T06:41:22.693Z,6.90
2022-12-08T06:43:49.992Z,7.00
2022-12-08T06:46:19.476Z,6.90
2022-12-08T06:48:46.462Z,6.90
2022-12-08T06:51:17.246Z,6.60
2022-12-08T06:53:46.324Z,6.97
2022-12-08T06:56:15.974Z,7.17
2022-12-08T06:58:48.942Z,7.70
2022-12-08T07:01:20.651Z,7.27
2022-12-08T07:03:47.950Z,8.87
2022-12-08T07:06:19.346Z,6.70
2022-12-08T07:08:46.570Z,7.40
2022-12-08T07:11:19.596Z,7.90
2022-12-08T07:13:48.244Z,6.77
2022-12-08T07:16:15.212Z,6.43
2022-12-08T07:18:43.103Z,6.63
2022-12-08T07:21:12.370Z,7.20
2022-12-08T07:23:39.302Z,6.90
2022-12-08T07:26:08.447Z,7.20
2022-12-08T07:28:37.027Z,6.87
2022-12-08T07:31:05.541Z,7.23
2022-12-08T07:33:33.594Z,7.17
2022-12-08T07:36:03.319Z,7.47
2022-12-08T07:38:31.698Z,7.00
2022-12-08T07:41:02.135Z,9.03
2022-12-08T07:43:29.056Z,9.43
2022-12-08T07:45:55.974Z,8.47
2022-12-08T07:48:23.117Z,8.57
2022-12-08T07:50:50.248Z,9.47
2022-12-08T07:53:17.139Z,8.70
2022-12-08T07:55:45.124Z,7.20
2022-12-08T07:58:11.962Z,7.87
2022-12-08T08:00:38.971Z,8.33
2022-12-08T08:03:06.358Z,8.63
2022-12-08T08:05:34.821Z,8.23
2022-12-08T08:08:02.002Z,7.10
2022-12-08T08:10:29.238Z,7.03
2022-12-08T08:12:59.658Z,6.17
2022-12-08T08:15:27.551Z,7.77
2022-12-08T08:17:54.754Z,8.57
2022-12-08T08:20:23.738Z,8.23
2022-12-08T08:22:51.703Z,8.37
2022-12-08T08:25:22.755Z,8.43
2022-12-08T08:27:49.871Z,8.60
2022-12-08T08:30:20.696Z,8.17
2022-12-08T08:32:49.224Z,6.53
2022-12-08T08:35:16.579Z,7.53
2022-12-08T08:37:48.528Z,7.20
2022-12-08T08:40:17.478Z,7.73
2022-12-08T08:42:44.338Z,8.83
2022-12-08T08:45:11.604Z,8.43
2022-12-08T08:47:38.689Z,9.37
2022-12-08T08:50:06.850Z,8.47
2022-12-08T08:52:35.133Z,9.10
2022-12-08T08:55:02.294Z,8.47
2022-12-08T08:57:29.199Z,10.30
2022-12-08T08:59:56.273Z,9.60
2022-12-08T09:02:23.215Z,9.40
2022-12-08T09:04:51.388Z,12.60
2022-12-08T09:07:18.604Z,13.10
2022-12-08T09:09:45.714Z,11.20
2022-12-08T09:12:13.944Z,10.43
2022-12-08T09:14:41.888Z,10.37
2022-12-08T09:17:08.734Z,12.37
2022-12-08T09:19:35.630Z,11.00
2022-12-08T09:22:02.717Z,12.57
2022-12-08T09:24:29.581Z,14.83
2022-12-08T09:26:56.715Z,15.23
2022-12-08T09:29:24.173Z,16.13
2022-12-08T09:31:51.293Z,18.37
2022-12-08T09:34:18.666Z,18.07
2022-12-08T09:36:45.686Z,15.47
2022-12-08T09:39:12.857Z,12.77
2022-12-08T09:41:47.796Z,12.50
2022-12-08T09:44:30.702Z,13.20
2022-12-08T09:46:58.858Z,13.67
2022-12-08T09:49:38.747Z,13.33
2022-12-08T09:52:12.117Z,11.87
2022-12-08T09:54:39.379Z,11.97
2022-12-08T09:57:13.479Z,12.77
2022-12-08T09:59:43.295Z,13.37
2022-12-08T10:02:25.619Z,14.10
2022-12-08T10:04:56.315Z,13.30
2022-12-08T10:07:32.135Z,14.83
2022-12-08T10:10:22.742Z,13.03
2022-12-08T10:13:25.405Z,14.03
2022-12-08T10:16:24.194Z,15.03
2022-12-08T10:19:35.037Z,13.73
2022-12-08T10:22:05.867Z,14.77
2022-12-08T10:24:53.399Z,14.70
2022-12-08T10:27:21.105Z,14.07
2022-12-08T10:29:49.017Z,13.60
2022-12-08T10:32:20.780Z,15.07
2022-12-08T10:35:08.776Z,14.90
2022-12-08T10:37:37.096Z,14.20
2022-12-08T10:40:17.394Z,14.33
2022-12-08T10:42:48.503Z,14.57
2022-12-08T10:45:53.088Z,15.17
2022-12-08T10:48:20.652Z,15.80
2022-12-08T10:50:53.361Z,15.13
2022-12-08T10:53:21.633Z,15.97
2022-12-08T10:55:53.891Z,16.37
2022-12-08T10:58:31.497Z,16.10
2022-12-08T11:01:05.615Z,13.93
2022-12-08T11:03:45.736Z,14.13
2022-12-08T11:06:20.658Z,16.47
2022-12-08T11:08:53.969Z,15.47
2022-12-08T11:11:29.020Z,14.30
2022-12-08T11:13:56.378Z,14.37
2022-12-08T11:16:23.678Z,15.37
2022-12-08T11:18:57.226Z,12.57
2022-12-08T11:21:36.093Z,14.77
2022-12-08T11:24:18.136Z,14.43
2022-12-08T11:26:51.988Z,15.53
2022-12-08T11:29:19.446Z,15.97
2022-12-08T11:31:57.528Z,15.00
2022-12-08T11:34:30.779Z,15.50
2022-12-08T11:36:58.924Z,17.73
2022-12-08T11:39:32.097Z,15.03
2022-12-08T11:42:01.344Z,15.80
2022-12-08T11:44:37.447Z,16.23
2022-12-08T11:47:14.663Z,15.80
2022-12-08T11:49:43.186Z,18.33
2022-12-08T11:52:19.453Z,16.40
2022-12-08T11:55:02.739Z,15.77
2022-12-08T11:57:30.390Z,15.67
2022-12-08T11:59:58.686Z,16.00
2022-12-08T12:02:42.558Z,15.47
2022-12-08T12:05:11.334Z,16.77
2022-12-08T12:07:38.342Z,16.50
2022-12-08T12:10:26.437Z,16.40
2022-12-08T12:13:19.892Z,18.87
2022-12-08T12:16:08.304Z,18.37
2022-12-08T12:18:46.550Z,17.87
2022-12-08T12:21:35.961Z,18.27
2022-12-08T12:24:16.374Z,18.37
2022-12-08T12:26:56.126Z,19.67
2022-12-08T12:29:26.143Z,20.10
2022-12-08T12:32:04.390Z,21.73
2022-12-08T12:34:56.679Z,20.37
2022-12-08T12:37:25.344Z,16.90
2022-12-08T12:40:06.077Z,20.23
2022-12-08T12:42:40.961Z,20.90
2022-12-08T12:45:26.127Z,17.97
2022-12-08T12:48:19.745Z,18.37
2022-12-08T12:50:51.432Z,18.43
2022-12-08T12:53:18.953Z,19.23
2022-12-08T12:55:46.129Z,16.90
2022-12-08T12:58:32.682Z,17.47
2022-12-08T13:01:12.893Z,18.57
2022-12-08T13:03:43.497Z,19.97
2022-12-08T13:06:15.168Z,22.37
2022-12-08T13:08:53.580Z,19.63
2022-12-08T13:11:22.167Z,19.37
2022-12-08T13:14:03.858Z,59.33
2022-12-08T13:16:38.659Z,20.73
2022-12-08T13:19:15.819Z,22.73
2022-12-08T13:21:42.852Z,20.17
2022-12-08T13:24:30.832Z,20.90
2022-12-08T13:27:03.699Z,19.00
2022-12-08T13:29:32.418Z,19.30
2022-12-08T13:32:00.043Z,21.80
2022-12-08T13:34:46.014Z,22.30
2022-12-08T13:37:15.921Z,20.97
2022-12-08T13:39:49.868Z,20.83
2022-12-08T13:42:35.448Z,21.83
2022-12-08T13:45:25.548Z,22.10
2022-12-08T13:48:30.128Z,20.00
2022-12-08T13:57:24.413Z,18.90
2022-12-08T13:59:51.522Z,19.60
2022-12-08T14:02:23.842Z,20.13
2022-12-08T14:07:41.119Z,18.67
2022-12-08T14:10:16.322Z,20.00
2022-12-08T14:12:48.092Z,17.70
2022-12-08T14:15:16.027Z,19.43
2022-12-08T14:17:54.991Z,19.93
2022-12-08T14:20:27.206Z,17.97
2022-12-08T14:22:54.189Z,19.17
2022-12-08T14:25:22.095Z,17.57
2022-12-08T14:27:49.847Z,19.30
2022-12-08T14:30:33.937Z,19.63
2022-12-08T14:33:02.904Z,17.37
2022-12-08T14:35:29.798Z,18.33
2022-12-08T14:38:00.242Z,17.20
2022-12-08T14:40:42.162Z,17.77
2022-12-08T14:43:08.987Z,23.20
2022-12-08T14:45:45.132Z,24.37
2022-12-08T14:48:27.990Z,21.17
2022-12-08T14:51:07.087Z,17.57
2022-12-08T14:53:55.634Z,18.40
2022-12-08T14:56:36.542Z,20.50
2022-12-08T14:59:14.250Z,18.67
2022-12-08T15:01:43.114Z,22.23
2022-12-08T15:04:12.931Z,23.07
2022-12-08T15:07:04.872Z,19.43
2022-12-08T15:09:43.858Z,19.63
2022-12-08T15:12:13.820Z,22.53
2022-12-08T15:14:54.354Z,21.43
2022-12-08T15:17:44.274Z,17.53
2022-12-08T15:20:41.615Z,17.80
2022-12-08T15:23:42.585Z,17.13
2022-12-08T15:26:18.552Z,17.70
2022-12-08T15:28:45.297Z,17.10
2022-12-08T15:31:12.156Z,16.43
2022-12-08T15:33:39.308Z,18.40
2022-12-08T15:36:06.490Z,19.20
2022-12-08T15:38:34.104Z,23.70
2022-12-08T15:41:00.933Z,26.73
2022-12-08T15:43:28.370Z,25.73
2022-12-08T15:45:59.404Z,24.80
2022-12-08T15:48:29.644Z,23.47
2022-12-08T15:50:57.259Z,20.33
2022-12-08T15:53:24.118Z,20.47
2022-12-08T15:56:26.507Z,18.83
2022-12-08T15:58:53.583Z,20.83
2022-12-08T16:01:21.837Z,20.97
2022-12-08T16:09:34.404Z,21.17
2022-12-08T16:12:20.297Z,22.33
2022-12-08T16:15:48.462Z,20.13
2022-12-08T16:17:34.617Z,19.47
2022-12-08T16:20:02.297Z,20.53
2022-12-08T16:25:20.598Z,19.10
2022-12-08T16:28:36.775Z,20.20
2022-12-08T16:30:41.308Z,21.37
2022-12-08T16:33:09.384Z,18.73
2022-12-08T16:35:36.242Z,19.43
2022-12-08T16:38:03.230Z,20.00
2022-12-08T16:40:30.436Z,19.13
2022-12-08T16:42:57.239Z,17.17
2022-12-08T16:45:29.050Z,16.97
2022-12-08T16:47:58.807Z,15.57
2022-12-08T16:50:31.388Z,16.87
2022-12-08T16:53:04.414Z,16.20
2022-12-08T16:55:32.337Z,15.57
2022-12-08T16:57:59.126Z,15.00
2022-12-08T17:00:28.097Z,16.40
2022-12-08T17:02:55.382Z,10.43
2022-12-08T17:05:23.935Z,15.03
2022-12-08T17:07:52.208Z,17.00
2022-12-08T17:10:23.599Z,16.47
2022-12-08T17:12:51.194Z,15.90
2022-12-08T17:15:21.349Z,14.70
2022-12-08T17:17:48.541Z,13.30
2022-12-08T17:20:19.559Z,16.67
2022-12-08T17:22:46.900Z,15.90
2022-12-08T17:25:14.063Z,15.37
2022-12-08T17:27:41.782Z,16.07
2022-12-08T17:30:11.546Z,15.30
2022-12-08T17:32:38.895Z,16.07
2022-12-08T17:35:07.308Z,14.77
2022-12-08T17:37:34.761Z,13.43
2022-12-08T17:40:01.740Z,14.83
2022-12-08T17:42:28.487Z,14.53
2022-12-08T17:44:55.265Z,12.93
2022-12-08T17:47:22.496Z,14.43
2022-12-08T17:49:50.678Z,14.40
2022-12-08T17:52:17.484Z,16.70
2022-12-08T17:54:44.314Z,13.87
2022-12-08T17:57:11.075Z,15.47
2022-12-08T17:59:38.058Z,15.43
2022-12-08T18:02:04.854Z,14.80
2022-12-08T18:04:31.750Z,13.87
2022-12-08T18:07:00.789Z,13.40
2022-12-08T18:09:30.628Z,14.00
2022-12-08T18:11:57.511Z,12.77
2022-12-08T18:14:24.749Z,14.77
2022-12-08T18:16:51.720Z,13.37
2022-12-08T18:19:18.664Z,14.00
2022-12-08T18:21:45.561Z,13.10
2022-12-08T18:24:19.410Z,14.43
2022-12-08T18:26:46.713Z,14.07
2022-12-08T18:29:13.887Z,13.40
2022-12-08T18:31:41.028Z,14.20
2022-12-08T18:34:07.967Z,15.30
2022-12-08T18:36:34.879Z,12.17
2022-12-08T18:39:05.728Z,14.17
2022-12-08T18:41:35.870Z,13.70
2022-12-08T18:44:02.677Z,14.80
2022-12-08T18:46:29.685Z,13.33
2022-12-08T18:48:56.503Z,13.07
2022-12-08T18:51:24.245Z,15.23
2022-12-08T18:53:51.942Z,14.40
2022-12-08T18:56:27.542Z,16.23
2022-12-08T18:59:01.290Z,15.13
2022-12-08T19:01:30.282Z,14.17
2022-12-08T19:04:26.818Z,15.07
2022-12-08T19:06:46.126Z,16.10
2022-12-08T19:09:14.072Z,18.23
2022-12-08T19:11:41.738Z,17.83
2022-12-08T19:14:09.051Z,16.33
2022-12-08T19:16:35.970Z,17.10
2022-12-08T19:19:04.958Z,16.30
2022-12-08T19:21:32.697Z,15.80
2022-12-08T19:24:00.034Z,15.90
2022-12-08T19:26:28.281Z,15.47
2022-12-08T19:28:55.083Z,15.73
2022-12-08T19:31:21.917Z,16.07
2022-12-08T19:33:48.764Z,14.63
2022-12-08T19:36:18.290Z,14.63
2022-12-08T19:39:03.602Z,14.93
2022-12-08T19:41:49.440Z,15.03
2022-12-08T19:44:32.786Z,13.80
2022-12-08T19:47:00.648Z,13.83
2022-12-08T19:49:27.767Z,15.23
2022-12-08T19:51:54.580Z,14.60
2022-12-08T19:54:21.438Z,12.87
2022-12-08T19:56:48.293Z,15.23
2022-12-08T19:59:18.197Z,14.53
2022-12-08T20:01:45.642Z,15.00
2022-12-08T20:04:14.667Z,13.07
2022-12-08T20:06:41.788Z,14.50
2022-12-08T20:09:10.315Z,15.63
2022-12-08T20:11:37.994Z,14.83
2022-12-08T20:14:05.318Z,15.57
2022-12-08T20:16:32.621Z,11.67
2022-12-08T20:18:59.665Z,13.27
2022-12-08T20:21:26.472Z,13.53
2022-12-08T20:23:53.339Z,11.97
2022-12-08T20:26:22.059Z,13.43
2022-12-08T20:28:49.541Z,12.93
2022-12-08T20:31:25.602Z,14.37
2022-12-08T20:33:53.402Z,12.93
2022-12-08T20:36:21.939Z,12.90
2022-12-08T20:38:50.503Z,14.40
2022-12-08T20:41:17.941Z,13.43
2022-12-08T20:43:46.676Z,14.50
2022-12-08T20:46:16.017Z,14.07
2022-12-08T20:48:44.210Z,14.60
2022-12-08T20:51:17.846Z,13.03
2022-12-08T20:53:45.311Z,13.30
2022-12-08T20:56:21.691Z,13.37
2022-12-08T20:58:49.501Z,14.10
2022-12-08T21:01:19.716Z,14.57
2022-12-08T21:03:48.704Z,13.90
2022-12-08T21:06:16.665Z,15.27
2022-12-08T21:08:43.863Z,12.80
2022-12-08T21:11:11.728Z,13.07
2022-12-08T21:13:39.819Z,14.43
2022-12-08T21:16:09.301Z,13.17
2022-12-08T21:18:39.691Z,14.40
2022-12-08T21:21:14.032Z,13.33
2022-12-08T21:23:42.386Z,13.67
2022-12-08T21:26:30.313Z,12.87
2022-12-08T21:29:01.177Z,12.93
2022-12-08T21:31:29.340Z,12.47
2022-12-08T21:33:56.438Z,13.60
2022-12-08T21:36:23.602Z,14.37
2022-12-08T21:38:50.962Z,15.30
2022-12-08T21:41:39.083Z,14.27
2022-12-08T21:44:10.398Z,14.53
2022-12-08T21:46:38.088Z,14.40
2022-12-08T21:49:05.738Z,13.90
2022-12-08T21:51:33.882Z,12.83
2022-12-08T21:54:00.785Z,13.53
2022-12-08T21:56:27.901Z,12.87
2022-12-08T21:58:54.970Z,12.67
2022-12-08T22:01:21.903Z,14.03
2022-12-08T22:03:48.877Z,13.53
2022-12-08T22:06:16.108Z,14.00
2022-12-08T22:08:43.564Z,14.47
2022-12-08T22:11:12.567Z,12.77
2022-12-08T22:13:41.268Z,13.47
2022-12-08T22:16:11.679Z,13.93
2022-12-08T22:18:40.612Z,13.10
2022-12-08T22:21:09.809Z,12.60
2022-12-08T22:23:37.343Z,13.67
2022-12-08T22:26:05.358Z,13.63
2022-12-08T22:28:36.173Z,12.47
2022-12-08T22:31:29.981Z,13.93
2022-12-08T22:33:59.113Z,14.27
2022-12-08T22:36:27.453Z,12.43
2022-12-08T22:38:54.932Z,14.67
2022-12-08T22:41:22.782Z,13.20
2022-12-08T22:43:50.313Z,12.70
2022-12-08T22:46:20.654Z,15.20
2022-12-08T22:48:48.073Z,14.27
2022-12-08T22:51:15.535Z,14.27
2022-12-08T22:53:43.171Z,13.77
2022-12-08T22:56:12.359Z,14.00
2022-12-08T22:58:40.511Z,13.53
2022-12-08T23:01:08.592Z,12.67
2022-12-08T23:03:35.866Z,13.73
2022-12-08T23:06:03.096Z,12.80
2022-12-08T23:08:30.158Z,13.40
2022-12-08T23:10:57.980Z,13.30
2022-12-08T23:13:24.908Z,14.93
2022-12-08T23:15:51.830Z,12.60
2022-12-08T23:18:19.307Z,13.70
2022-12-08T23:20:47.657Z,12.20
2022-12-08T23:23:14.927Z,13.93
2022-12-08T23:25:43.040Z,15.53
2022-12-08T23:28:10.726Z,14.07
2022-12-08T23:30:40.833Z,13.97
2022-12-08T23:33:07.922Z,13.80
2022-12-08T23:35:34.894Z,12.97
2022-12-08T23:38:01.871Z,14.47
2022-12-08T23:40:28.852Z,12.13
2022-12-08T23:42:55.984Z,14.10
2022-12-08T23:45:22.973Z,13.93
2022-12-08T23:47:50.093Z,16.20
2022-12-08T23:50:17.596Z,14.00
2022-12-08T23:52:45.472Z,15.97
2022-12-08T23:55:12.342Z,15.20
2022-12-08T23:57:39.154Z,16.30
